createdAt,value
2022-12-15T00:00:01.928Z,9.77
2022-12-15T00:02:48.073Z,9.33
2022-12-15T00:05:33.837Z,9.57
2022-12-15T00:08:26.875Z,8.87
2022-12-15T00:11:12.930Z,7.83
2022-12-15T00:13:58.910Z,8.10
2022-12-15T00:16:44.811Z,9.17
2022-12-15T00:19:30.772Z,7.63
2022-12-15T00:22:16.842Z,8.80
2022-12-15T00:25:02.760Z,7.63
2022-12-15T00:27:48.958Z,8.67
2022-12-15T00:30:34.922Z,7.97
2022-12-15T00:33:26.115Z,10.57
2022-12-15T00:36:12.069Z,8.53
2022-12-15T00:38:43.364Z,9.40
2022-12-15T00:41:11.555Z,8.33
2022-12-15T00:43:38.730Z,9.33
2022-12-15T00:46:25.533Z,7.90
2022-12-15T00:48:52.924Z,8.73
2022-12-15T00:51:20.343Z,9.50
2022-12-15T00:54:06.819Z,11.37
2022-12-15T00:56:52.735Z,9.90
2022-12-15T00:59:38.817Z,11.47
2022-12-15T01:02:24.878Z,24.97
2022-12-15T01:05:10.640Z,12.07
2022-12-15T01:07:56.623Z,16.30
2022-12-15T01:10:42.583Z,12.47
2022-12-15T01:13:32.502Z,12.00
2022-12-15T01:16:18.611Z,12.67
2022-12-15T01:19:04.388Z,10.03
2022-12-15T01:21:32.219Z,8.60
2022-12-15T01:23:59.330Z,11.97
2022-12-15T01:26:26.455Z,9.83
2022-12-15T01:28:53.617Z,10.53
2022-12-15T01:31:20.781Z,12.40
2022-12-15T01:33:47.931Z,11.37
2022-12-15T01:36:15.189Z,9.60
2022-12-15T01:38:42.733Z,9.00
2022-12-15T01:41:12.443Z,9.97
2022-12-15T01:43:40.588Z,10.70
2022-12-15T01:46:07.769Z,9.17
2022-12-15T01:48:36.507Z,9.60
2022-12-15T01:51:03.614Z,9.57
2022-12-15T01:53:34.126Z,10.47
2022-12-15T01:56:01.454Z,9.30
2022-12-15T01:58:28.703Z,9.00
2022-12-15T02:00:55.991Z,10.03
2022-12-15T02:03:23.996Z,9.43
2022-12-15T02:05:51.260Z,9.90
2022-12-15T02:08:18.438Z,8.97
2022-12-15T02:10:54.666Z,10.37
2022-12-15T02:13:29.878Z,8.97
2022-12-15T02:16:02.867Z,9.90
2022-12-15T02:21:47.480Z,8.77
2022-12-15T02:24:29.832Z,9.10
2022-12-15T02:27:00.048Z,9.30
2022-12-15T02:29:45.664Z,8.70
2022-12-15T02:32:17.513Z,9.73
2022-12-15T02:34:47.557Z,9.37
2022-12-15T02:37:15.482Z,10.00
2022-12-15T02:39:42.617Z,8.93
2022-12-15T02:42:12.640Z,9.27
2022-12-15T02:44:49.334Z,10.10
2022-12-15T02:47:25.615Z,10.33
2022-12-15T02:49:52.734Z,8.53
2022-12-15T02:52:38.561Z,9.13
2022-12-15T02:55:21.925Z,9.73
2022-12-15T02:57:54.980Z,8.53
2022-12-15T03:00:22.835Z,9.20
2022-12-15T03:02:52.324Z,9.87
2022-12-15T03:05:20.373Z,8.17
2022-12-15T03:07:50.009Z,8.07
2022-12-15T03:10:17.172Z,8.00
2022-12-15T03:12:45.102Z,7.83
2022-12-15T03:15:12.604Z,7.77
2022-12-15T03:17:40.233Z,7.67
2022-12-15T03:20:07.865Z,8.10
2022-12-15T03:22:35.225Z,7.70
2022-12-15T03:25:02.418Z,8.40
2022-12-15T03:27:29.570Z,8.33
2022-12-15T03:29:57.521Z,8.20
2022-12-15T03:32:24.689Z,8.10
2022-12-15T03:34:51.864Z,6.97
2022-12-15T03:37:19.038Z,8.57
2022-12-15T03:39:46.207Z,7.37
2022-12-15T03:42:13.328Z,7.60
2022-12-15T03:44:40.452Z,9.50
2022-12-15T03:47:07.572Z,7.07
2022-12-15T03:49:34.813Z,7.97
2022-12-15T03:52:01.941Z,7.40
2022-12-15T03:54:29.067Z,7.07
2022-12-15T03:56:56.173Z,7.17
2022-12-15T03:59:23.319Z,7.33
2022-12-15T04:01:50.537Z,7.43
2022-12-15T04:04:17.765Z,6.97
2022-12-15T04:06:45.032Z,7.77
2022-12-15T04:09:12.148Z,7.67
2022-12-15T04:11:39.302Z,7.77
2022-12-15T04:14:06.425Z,8.43
2022-12-15T04:16:33.584Z,8.17
2022-12-15T04:19:19.219Z,7.27
2022-12-15T04:21:46.338Z,7.03
2022-12-15T04:24:31.938Z,6.77
2022-12-15T04:27:17.744Z,7.37
2022-12-15T04:30:03.687Z,6.70
2022-12-15T04:32:50.027Z,5.90
2022-12-15T04:35:36.434Z,5.83
2022-12-15T04:38:22.428Z,7.00
2022-12-15T04:41:08.389Z,6.70
2022-12-15T04:43:54.415Z,7.77
2022-12-15T04:46:40.562Z,7.73
2022-12-15T04:49:26.387Z,6.63
2022-12-15T04:52:12.380Z,7.73
2022-12-15T04:54:58.273Z,6.80
2022-12-15T04:57:44.208Z,6.57
2022-12-15T05:00:30.217Z,7.23
2022-12-15T05:03:18.557Z,6.50
2022-12-15T05:06:04.685Z,6.83
2022-12-15T05:08:50.625Z,9.40
2022-12-15T05:11:36.551Z,6.13
2022-12-15T05:14:22.556Z,6.87
2022-12-15T05:17:08.606Z,7.60
2022-12-15T05:19:54.491Z,7.10
2022-12-15T05:22:40.389Z,7.97
2022-12-15T05:25:26.327Z,6.23
2022-12-15T05:28:12.331Z,6.00
2022-12-15T05:30:58.216Z,6.63
2022-12-15T05:33:25.377Z,6.50
2022-12-15T05:35:52.507Z,7.90
2022-12-15T05:38:19.620Z,6.43
2022-12-15T05:40:46.739Z,6.33
2022-12-15T05:43:13.961Z,7.57
2022-12-15T05:45:41.102Z,7.20
2022-12-15T05:48:08.413Z,6.07
2022-12-15T05:50:35.720Z,7.93
2022-12-15T05:53:02.921Z,7.60
2022-12-15T05:55:30.257Z,7.37
2022-12-15T05:57:57.455Z,6.43
2022-12-15T06:00:24.721Z,5.87
2022-12-15T06:02:51.949Z,7.90
2022-12-15T06:05:19.140Z,7.33
2022-12-15T06:07:46.429Z,6.93
2022-12-15T06:10:16.284Z,9.03
2022-12-15T06:12:43.571Z,6.70
2022-12-15T06:15:10.777Z,6.83
2022-12-15T06:17:38.037Z,6.97
2022-12-15T06:20:05.430Z,7.63
2022-12-15T06:22:32.658Z,6.37
2022-12-15T06:24:59.787Z,6.43
2022-12-15T06:27:26.926Z,5.87
2022-12-15T06:29:54.209Z,5.60
2022-12-15T06:32:21.375Z,5.83
2022-12-15T06:34:49.547Z,7.30
2022-12-15T06:37:16.692Z,6.83
2022-12-15T06:39:43.879Z,5.87
2022-12-15T06:42:11.025Z,5.43
2022-12-15T06:44:38.117Z,6.33
2022-12-15T06:47:05.311Z,6.73
2022-12-15T06:49:32.514Z,5.10
2022-12-15T06:51:59.641Z,5.33
2022-12-15T06:54:26.832Z,6.07
2022-12-15T06:56:53.942Z,6.13
2022-12-15T06:59:21.144Z,5.73
2022-12-15T07:01:48.510Z,6.60
2022-12-15T07:04:15.915Z,5.40
2022-12-15T07:06:43.251Z,7.13
2022-12-15T07:09:13.240Z,6.90
2022-12-15T07:11:40.637Z,7.77
2022-12-15T07:14:07.811Z,7.53
2022-12-15T07:16:35.134Z,6.70
2022-12-15T07:19:02.667Z,6.83
2022-12-15T07:21:29.917Z,6.43
2022-12-15T07:23:58.120Z,6.63
2022-12-15T07:26:26.146Z,6.87
2022-12-15T07:28:54.503Z,6.63
2022-12-15T07:31:22.733Z,6.70
2022-12-15T07:33:51.972Z,7.47
2022-12-15T07:36:19.240Z,6.03
2022-12-15T07:38:50.306Z,7.93
2022-12-15T07:41:19.107Z,6.70
2022-12-15T07:43:47.759Z,6.93
2022-12-15T07:46:15.788Z,7.17
2022-12-15T07:48:42.964Z,7.00
2022-12-15T07:51:18.889Z,8.63
2022-12-15T07:53:47.005Z,6.73
2022-12-15T07:56:15.382Z,9.57
2022-12-15T07:58:42.661Z,7.47
2022-12-15T08:01:12.253Z,5.23
2022-12-15T08:03:40.377Z,7.13
2022-12-15T08:06:10.107Z,5.80
2022-12-15T08:08:37.616Z,6.20
2022-12-15T08:11:08.818Z,5.87
2022-12-15T08:16:23.603Z,5.80
2022-12-15T08:18:50.890Z,4.60
2022-12-15T08:21:18.092Z,5.57
2022-12-15T08:23:45.277Z,5.60
2022-12-15T08:26:13.900Z,5.77
2022-12-15T08:28:41.845Z,5.30
2022-12-15T08:31:10.524Z,8.53
2022-12-15T08:33:38.021Z,8.77
2022-12-15T08:36:06.835Z,8.13
2022-12-15T08:38:34.817Z,8.63
2022-12-15T08:41:14.793Z,6.77
2022-12-15T08:43:48.050Z,6.40
2022-12-15T08:46:17.007Z,7.77
2022-12-15T08:48:44.628Z,6.53
2022-12-15T08:51:12.128Z,6.93
2022-12-15T08:53:39.336Z,5.67
2022-12-15T08:56:10.555Z,7.30
2022-12-15T08:58:37.778Z,6.10
2022-12-15T09:01:06.618Z,6.40
2022-12-15T09:03:34.878Z,7.20
2022-12-15T09:06:03.851Z,7.17
2022-12-15T09:08:31.161Z,7.00
2022-12-15T09:10:59.095Z,8.33
2022-12-15T09:13:26.423Z,9.57
2022-12-15T09:16:09.288Z,7.33
2022-12-15T09:18:36.859Z,8.77
2022-12-15T09:21:04.950Z,8.67
2022-12-15T09:23:32.524Z,6.97
2022-12-15T09:26:03.704Z,6.30
2022-12-15T09:28:32.030Z,7.23
2022-12-15T09:31:09.376Z,6.50
2022-12-15T09:33:37.513Z,6.30
2022-12-15T09:36:05.510Z,7.93
2022-12-15T09:38:36.234Z,9.00
2022-12-15T09:41:15.575Z,8.40
2022-12-15T09:44:03.095Z,8.60
2022-12-15T09:46:36.241Z,7.73
2022-12-15T09:49:04.912Z,9.97
2022-12-15T09:51:40.092Z,10.63
2022-12-15T09:54:07.342Z,9.57
2022-12-15T09:56:49.688Z,9.33
2022-12-15T09:59:24.024Z,10.13
2022-12-15T10:01:55.088Z,8.50
2022-12-15T10:04:31.605Z,9.87
2022-12-15T10:07:04.864Z,8.70
2022-12-15T10:09:32.018Z,12.23
2022-12-15T10:12:01.557Z,7.73
2022-12-15T10:14:32.132Z,7.23
2022-12-15T10:17:03.120Z,9.30
2022-12-15T10:19:35.002Z,9.23
2022-12-15T10:22:02.190Z,8.43
2022-12-15T10:27:29.382Z,8.50
2022-12-15T10:29:59.692Z,7.80
2022-12-15T10:32:43.885Z,7.30
2022-12-15T10:35:30.661Z,8.43
2022-12-15T10:38:05.415Z,8.13
2022-12-15T10:40:55.428Z,7.33
2022-12-15T10:43:29.038Z,8.53
2022-12-15T10:46:13.493Z,6.80
2022-12-15T10:48:41.639Z,7.00
2022-12-15T10:51:15.040Z,6.30
2022-12-15T10:53:43.977Z,10.33
2022-12-15T10:56:21.036Z,8.77
2022-12-15T10:58:51.658Z,8.37
2022-12-15T11:01:20.638Z,5.93
2022-12-15T11:03:51.943Z,6.37
2022-12-15T11:06:21.678Z,8.37
2022-12-15T11:08:50.484Z,6.43
2022-12-15T11:11:47.318Z,8.30
2022-12-15T11:14:19.361Z,7.07
2022-12-15T11:16:48.772Z,7.77
2022-12-15T11:19:21.128Z,6.70
2022-12-15T11:21:54.087Z,7.33
2022-12-15T11:24:27.170Z,6.10
2022-12-15T11:27:13.152Z,7.20
2022-12-15T11:29:58.242Z,7.70
2022-12-15T11:32:26.918Z,7.50
2022-12-15T11:34:55.205Z,7.33
2022-12-15T11:37:34.152Z,8.43
2022-12-15T11:40:22.286Z,7.47
2022-12-15T11:42:52.541Z,7.33
2022-12-15T11:45:22.355Z,7.87
2022-12-15T11:47:49.649Z,6.90
2022-12-15T11:50:18.222Z,7.33
2022-12-15T11:52:45.487Z,6.17
2022-12-15T11:55:29.601Z,8.10
2022-12-15T11:58:10.339Z,8.23
2022-12-15T12:00:45.784Z,7.50
2022-12-15T12:03:15.967Z,8.03
2022-12-15T12:05:48.041Z,7.73
2022-12-15T12:08:22.239Z,8.27
2022-12-15T12:10:49.344Z,9.80
2022-12-15T12:13:29.909Z,11.67
2022-12-15T12:16:15.890Z,11.40
2022-12-15T12:18:55.488Z,10.07
2022-12-15T12:21:27.606Z,12.00
2022-12-15T12:23:58.673Z,9.47
2022-12-15T12:26:44.240Z,9.40
2022-12-15T12:29:31.344Z,10.83
2022-12-15T12:32:19.269Z,9.07
2022-12-15T12:34:51.173Z,10.90
2022-12-15T12:37:21.649Z,8.93
2022-12-15T12:39:50.202Z,8.50
2022-12-15T12:42:22.724Z,8.37
2022-12-15T12:44:49.825Z,8.67
2022-12-15T12:47:17.341Z,9.90
2022-12-15T12:49:46.731Z,9.77
2022-12-15T12:52:38.067Z,8.47
2022-12-15T12:55:21.086Z,10.13
2022-12-15T12:57:50.083Z,11.83
2022-12-15T13:00:19.560Z,9.30
2022-12-15T13:02:53.210Z,10.17
2022-12-15T13:05:29.103Z,11.00
2022-12-15T13:07:57.756Z,10.33
2022-12-15T13:10:26.245Z,10.43
2022-12-15T13:13:00.010Z,10.47
2022-12-15T13:15:30.137Z,9.97
2022-12-15T13:18:00.344Z,9.73
2022-12-15T13:20:32.059Z,11.23
2022-12-15T13:23:18.984Z,9.23
2022-12-15T13:25:53.620Z,12.30
2022-12-15T13:28:39.216Z,9.00
2022-12-15T13:31:16.095Z,8.83
2022-12-15T13:33:52.661Z,9.30
2022-12-15T13:36:38.444Z,10.73
2022-12-15T13:39:17.626Z,9.03
2022-12-15T13:44:36.381Z,11.43
2022-12-15T13:47:10.145Z,11.03
2022-12-15T13:49:47.537Z,9.63
2022-12-15T13:52:25.855Z,12.60
2022-12-15T13:55:08.231Z,8.63
2022-12-15T13:57:40.475Z,9.47
2022-12-15T14:00:18.698Z,7.67
2022-12-15T14:02:46.356Z,10.03
2022-12-15T14:05:22.402Z,9.63
2022-12-15T14:10:45.822Z,9.43
2022-12-15T14:13:30.614Z,9.83
2022-12-15T14:16:05.871Z,9.53
2022-12-15T14:18:37.656Z,10.33
2022-12-15T14:21:08.881Z,10.00
2022-12-15T14:26:33.021Z,9.53
2022-12-15T14:29:05.556Z,10.57
2022-12-15T14:31:32.966Z,10.00
2022-12-15T14:34:07.171Z,9.87
2022-12-15T14:36:34.522Z,9.77
2022-12-15T14:39:21.906Z,9.40
2022-12-15T14:41:50.479Z,10.80
2022-12-15T14:44:37.041Z,9.23
2022-12-15T14:47:06.296Z,11.23
2022-12-15T14:49:38.156Z,10.00
2022-12-15T14:52:06.543Z,12.10
2022-12-15T14:54:39.771Z,11.27
2022-12-15T14:57:09.716Z,12.23
2022-12-15T14:59:40.895Z,14.43
2022-12-15T15:02:08.155Z,12.47
2022-12-15T15:03:11.153Z,10.33
2022-12-15T15:03:14.309Z,10.47
2022-12-15T15:04:35.374Z,15.97
2022-12-15T15:07:07.373Z,14.33
2022-12-15T15:09:39.854Z,14.10
2022-12-15T15:12:08.644Z,18.20
2022-12-15T15:14:38.700Z,15.13
2022-12-15T15:17:09.556Z,16.37
2022-12-15T15:19:39.723Z,17.57
2022-12-15T15:22:11.471Z,14.70
2022-12-15T15:24:39.574Z,15.77
2022-12-15T15:27:26.773Z,13.70
2022-12-15T15:30:07.146Z,12.00
2022-12-15T15:32:49.793Z,13.93
2022-12-15T15:35:16.876Z,12.97
2022-12-15T15:37:43.975Z,13.63
2022-12-15T15:40:12.674Z,13.10
2022-12-15T15:42:39.962Z,11.70
2022-12-15T15:45:13.663Z,11.87
2022-12-15T15:47:41.683Z,11.47
2022-12-15T15:50:13.506Z,10.77
2022-12-15T15:52:40.867Z,10.63
2022-12-15T15:55:10.318Z,12.43
2022-12-15T15:57:37.419Z,13.17
2022-12-15T16:00:08.197Z,12.43
2022-12-15T16:02:35.644Z,12.50
2022-12-15T16:05:02.935Z,10.70
2022-12-15T16:07:30.042Z,11.30
2022-12-15T16:09:57.639Z,10.60
2022-12-15T16:12:29.553Z,9.77
2022-12-15T16:14:56.811Z,11.93
2022-12-15T16:17:24.000Z,12.10
2022-12-15T16:19:51.149Z,10.23
2022-12-15T16:22:19.585Z,11.43
2022-12-15T16:24:46.714Z,10.63
2022-12-15T16:27:14.943Z,12.17
2022-12-15T16:29:42.297Z,12.23
2022-12-15T16:32:10.960Z,11.80
2022-12-15T16:34:38.041Z,11.10
2022-12-15T16:37:05.552Z,11.83
2022-12-15T16:39:33.842Z,11.00
2022-12-15T16:42:00.972Z,12.00
2022-12-15T16:44:32.191Z,15.03
2022-12-15T16:46:59.371Z,11.37
2022-12-15T16:49:27.835Z,10.83
2022-12-15T16:51:55.134Z,11.40
2022-12-15T16:54:26.885Z,11.10
2022-12-15T16:56:54.799Z,10.70
2022-12-15T16:59:33.203Z,11.47
2022-12-15T17:02:01.554Z,8.60
2022-12-15T17:04:28.732Z,10.20
2022-12-15T17:06:55.853Z,10.67
2022-12-15T17:09:24.303Z,11.37
2022-12-15T17:11:52.066Z,11.40
2022-12-15T17:14:19.334Z,11.03
2022-12-15T17:16:46.487Z,10.13
2022-12-15T17:19:17.667Z,10.57
2022-12-15T17:21:48.270Z,11.50
2022-12-15T17:24:16.689Z,12.50
2022-12-15T17:26:44.672Z,12.80
2022-12-15T17:29:17.138Z,11.67
2022-12-15T17:31:44.415Z,11.23
2022-12-15T17:34:25.218Z,11.77
2022-12-15T17:36:52.767Z,13.23
2022-12-15T17:39:20.999Z,12.70
2022-12-15T17:41:59.801Z,13.00
2022-12-15T17:44:38.384Z,12.03
2022-12-15T17:47:07.506Z,15.37
2022-12-15T17:49:37.811Z,13.07
2022-12-15T17:52:26.051Z,13.47
2022-12-15T17:54:53.249Z,17.10
2022-12-15T17:57:20.611Z,25.73
2022-12-15T17:59:47.703Z,27.63
2022-12-15T18:02:16.207Z,24.77
2022-12-15T18:04:43.535Z,25.07
2022-12-15T18:07:14.604Z,26.40
2022-12-15T18:09:42.143Z,20.67
2022-12-15T18:12:22.744Z,20.97
2022-12-15T18:14:50.160Z,18.10
2022-12-15T18:17:17.330Z,18.57
2022-12-15T18:19:44.911Z,16.30
2022-12-15T18:22:14.244Z,13.47
2022-12-15T18:24:41.453Z,14.70
2022-12-15T18:27:18.603Z,14.00
2022-12-15T18:29:46.035Z,12.07
2022-12-15T18:32:13.231Z,11.03
2022-12-15T18:34:40.310Z,9.17
2022-12-15T18:37:15.912Z,10.77
2022-12-15T18:39:43.001Z,11.53
2022-12-15T18:42:16.737Z,10.00
2022-12-15T18:44:48.363Z,10.03
2022-12-15T18:47:19.729Z,12.53
2022-12-15T18:49:47.083Z,12.33
2022-12-15T18:52:17.313Z,15.63
2022-12-15T18:54:44.927Z,16.97
2022-12-15T18:57:26.642Z,12.63
2022-12-15T18:59:54.472Z,11.10
2022-12-15T19:02:21.606Z,10.73
2022-12-15T19:04:48.761Z,11.07
2022-12-15T19:07:16.241Z,13.47
2022-12-15T19:09:43.370Z,13.83
2022-12-15T19:12:20.053Z,13.13
2022-12-15T19:14:48.917Z,14.37
2022-12-15T19:17:41.885Z,12.87
2022-12-15T19:20:35.143Z,13.27
2022-12-15T19:23:02.254Z,15.27
2022-12-15T19:25:30.057Z,12.30
2022-12-15T19:28:01.259Z,10.67
2022-12-15T19:30:30.211Z,13.87
2022-12-15T19:32:57.747Z,13.17
2022-12-15T19:35:25.128Z,11.73
2022-12-15T19:37:55.067Z,11.37
2022-12-15T19:40:32.464Z,10.60
2022-12-15T19:43:00.388Z,19.87
2022-12-15T19:45:29.485Z,28.90
2022-12-15T19:47:56.675Z,32.77
2022-12-15T19:50:25.074Z,23.43
2022-12-15T19:53:02.613Z,19.93
2022-12-15T19:55:32.714Z,16.83
2022-12-15T19:58:00.816Z,19.13
2022-12-15T20:00:27.999Z,20.30
2022-12-15T20:02:55.903Z,20.47
2022-12-15T20:05:23.918Z,20.83
2022-12-15T20:07:53.049Z,19.00
2022-12-15T20:10:26.171Z,19.23
2022-12-15T20:12:58.825Z,20.47
2022-12-15T20:15:26.522Z,22.33
2022-12-15T20:17:56.596Z,17.37
2022-12-15T20:20:25.082Z,17.27
2022-12-15T20:22:53.863Z,14.93
2022-12-15T20:25:25.613Z,14.47
2022-12-15T20:27:52.784Z,12.23
2022-12-15T20:30:25.102Z,14.00
2022-12-15T20:32:52.305Z,13.43
2022-12-15T20:35:20.228Z,10.80
2022-12-15T20:37:47.777Z,9.97
2022-12-15T20:40:17.913Z,8.53
2022-12-15T20:42:45.114Z,7.67
2022-12-15T20:45:20.398Z,8.10
2022-12-15T20:47:48.216Z,9.00
2022-12-15T20:50:26.951Z,8.20
2022-12-15T20:52:54.946Z,9.03
2022-12-15T20:55:22.525Z,9.13
2022-12-15T20:57:49.943Z,8.80
2022-12-15T21:00:18.325Z,7.60
2022-12-15T21:02:46.301Z,7.37
2022-12-15T21:05:17.720Z,6.80
2022-12-15T21:07:45.481Z,8.53
2022-12-15T21:10:14.004Z,7.97
2022-12-15T21:12:41.814Z,8.77
2022-12-15T21:15:19.445Z,8.93
2022-12-15T21:17:47.010Z,9.73
2022-12-15T21:20:14.630Z,10.50
2022-12-15T21:22:42.069Z,9.10
2022-12-15T21:25:16.870Z,8.73
2022-12-15T21:27:44.056Z,9.27
2022-12-15T21:30:20.505Z,8.87
2022-12-15T21:32:48.541Z,12.33
2022-12-15T21:35:17.093Z,16.93
2022-12-15T21:37:46.599Z,29.27
2022-12-15T21:40:17.941Z,39.17
2022-12-15T21:42:45.071Z,28.90
2022-12-15T21:45:19.494Z,23.50
2022-12-15T21:48:05.236Z,14.20
2022-12-15T21:50:32.773Z,14.97
2022-12-15T21:53:00.630Z,15.00
2022-12-15T21:55:28.797Z,14.13
2022-12-15T21:57:57.254Z,16.00
2022-12-15T22:00:25.071Z,15.77
2022-12-15T22:02:53.535Z,15.17
2022-12-15T22:05:25.478Z,14.10
2022-12-15T22:07:52.679Z,12.80
2022-12-15T22:10:19.898Z,11.70
2022-12-15T22:12:54.623Z,12.37
2022-12-15T22:15:26.375Z,9.50
2022-12-15T22:17:53.623Z,9.67
2022-12-15T22:20:22.322Z,10.67
2022-12-15T22:22:49.742Z,10.37
2022-12-15T22:25:18.203Z,10.87
2022-12-15T22:27:45.654Z,12.53
2022-12-15T22:30:17.092Z,12.23
2022-12-15T22:32:44.213Z,12.77
2022-12-15T22:35:21.961Z,12.70
2022-12-15T22:37:56.215Z,10.50
2022-12-15T22:40:23.959Z,9.10
2022-12-15T22:42:52.991Z,9.03
2022-12-15T22:45:23.979Z,8.33
2022-12-15T22:47:52.047Z,9.30
2022-12-15T22:50:24.007Z,7.17
2022-12-15T22:52:51.960Z,7.93
2022-12-15T22:55:20.082Z,6.97
2022-12-15T22:57:58.701Z,7.37
2022-12-15T23:00:26.162Z,6.77
2022-12-15T23:02:53.366Z,7.63
2022-12-15T23:05:20.659Z,7.50
2022-12-15T23:07:47.836Z,7.93
2022-12-15T23:10:34.625Z,8.03
2022-12-15T23:13:01.735Z,7.90
2022-12-15T23:15:48.186Z,8.00
2022-12-15T23:18:15.362Z,7.90
2022-12-15T23:20:42.760Z,6.97
2022-12-15T23:23:10.583Z,9.40
2022-12-15T23:25:37.856Z,8.27
2022-12-15T23:28:05.459Z,8.20
2022-12-15T23:30:32.642Z,8.73
2022-12-15T23:32:59.905Z,7.97
2022-12-15T23:35:27.378Z,9.03
2022-12-15T23:37:54.457Z,8.70
2022-12-15T23:40:22.813Z,5.90
2022-12-15T23:42:50.599Z,7.40
2022-12-15T23:45:18.099Z,7.33
2022-12-15T23:47:45.425Z,8.23
2022-12-15T23:50:12.595Z,7.60
2022-12-15T23:52:39.688Z,9.00
2022-12-15T23:55:10.303Z,9.77
2022-12-15T23:57:38.271Z,12.60
